Time;durP1;ratioP1;P1;durP2;ratioP2;P2;SDS_P1;SDS_P2;PMS_P1;PMS_P2;Temp;Humidity;BMP_temperature;BMP_pressure;BME280_temperature;BME280_humidity;BME280_pressure;Samples;Min_cycle;Max_cycle;Signal;HPM_P1;HPM_P2
2022/05/21 00:00:41;;;;;;;16.70;9.13;;;11.50;99.90;;;;;;4977099;28;20046;-83
2022/05/21 00:03:10;;;;;;;15.55;9.35;;;11.50;99.90;;;;;;4985577;28;20053;-83
2022/05/21 00:05:37;;;;;;;17.60;10.63;;;11.50;99.90;;;;;;4974955;28;20034;-83
2022/05/21 00:08:04;;;;;;;17.20;9.75;;;11.50;99.90;;;;;;4977006;28;20046;-83
2022/05/21 00:10:31;;;;;;;17.90;10.48;;;11.50;99.90;;;;;;4961347;28;20087;-83
2022/05/21 00:12:58;;;;;;;16.63;9.35;;;11.50;99.90;;;;;;4977386;28;20559;-83
2022/05/21 00:15:26;;;;;;;16.75;9.48;;;11.50;99.90;;;;;;4961130;28;20038;-83
2022/05/21 00:17:52;;;;;;;17.98;10.30;;;11.50;99.90;;;;;;4977186;28;20045;-83
2022/05/21 00:20:47;;;;;;;15.07;9.60;;;11.50;99.90;;;;;;4977362;28;20114;-84
2022/05/21 00:23:32;;;;;;;15.93;11.63;;;11.50;99.90;;;;;;4961409;28;20053;-83
2022/05/21 00:26:01;;;;;;;18.20;10.27;;;11.50;99.90;;;;;;4977164;28;20049;-83
2022/05/21 00:28:27;;;;;;;20.02;10.23;;;11.50;99.90;;;;;;4976667;28;20512;-83
2022/05/21 00:30:54;;;;;;;19.20;11.52;;;11.50;99.90;;;;;;4977187;28;20035;-83
2022/05/21 00:33:20;;;;;;;16.88;10.65;;;11.50;99.90;;;;;;4977011;28;20073;-83
2022/05/21 00:35:50;;;;;;;17.15;10.32;;;11.50;99.90;;;;;;4977090;28;20110;-83
2022/05/21 00:38:16;;;;;;;18.55;10.60;;;11.40;99.90;;;;;;4976664;28;20145;-83
2022/05/21 00:40:41;;;;;;;17.63;9.57;;;11.50;99.90;;;;;;4976937;28;20543;-83
2022/05/21 00:43:27;;;;;;;22.27;10.50;;;11.50;99.90;;;;;;4960672;28;20042;-83
2022/05/21 00:45:53;;;;;;;18.88;9.98;;;11.50;99.90;;;;;;4977019;28;20038;-84
2022/05/21 00:48:18;;;;;;;17.75;10.65;;;11.50;99.90;;;;;;4960449;28;20053;-83
2022/05/21 00:50:44;;;;;;;19.08;12.23;;;11.50;99.90;;;;;;4976689;28;20034;-84
2022/05/21 00:53:11;;;;;;;18.33;10.60;;;11.50;99.90;;;;;;4976750;28;20034;-83
2022/05/21 00:55:36;;;;;;;21.30;13.35;;;11.60;99.90;;;;;;4976530;28;20048;-84
2022/05/21 01:00:51;;;;;;;23.00;12.95;;;11.50;99.90;;;;;;4976434;28;20129;-83
2022/05/21 01:03:17;;;;;;;25.00;15.48;;;11.50;99.90;;;;;;4976412;28;20038;-84
2022/05/21 01:05:46;;;;;;;26.88;14.80;;;11.60;99.90;;;;;;4976299;28;20030;-84
2022/05/21 01:08:12;;;;;;;26.92;16.00;;;11.60;99.90;;;;;;4960087;28;20499;-84
2022/05/21 01:10:43;;;;;;;22.73;15.63;;;11.50;99.90;;;;;;4976596;28;20073;-83
2022/05/21 01:13:15;;;;;;;24.33;15.77;;;11.60;99.90;;;;;;4976563;28;20030;-84
2022/05/21 01:15:44;;;;;;;26.58;15.60;;;11.50;99.90;;;;;;4976306;28;20100;-83
2022/05/21 01:18:10;;;;;;;21.90;14.82;;;11.50;99.90;;;;;;4976037;28;20046;-83
2022/05/21 01:20:39;;;;;;;25.45;16.70;;;11.50;99.90;;;;;;4976360;28;20554;-84
2022/05/21 01:23:05;;;;;;;24.02;15.60;;;11.50;99.90;;;;;;4976377;28;20403;-84
2022/05/21 01:25:35;;;;;;;25.63;16.67;;;11.50;99.90;;;;;;4976234;28;20519;-84
2022/05/21 01:28:02;;;;;;;24.88;16.35;;;11.50;99.90;;;;;;4959461;28;20038;-84
2022/05/21 01:30:33;;;;;;;27.80;17.35;;;11.60;99.90;;;;;;4959908;28;20117;-84
2022/05/21 01:33:03;;;;;;;28.55;18.20;;;11.60;99.90;;;;;;4959842;28;20448;-83
2022/05/21 01:35:28;;;;;;;30.52;18.27;;;11.60;99.90;;;;;;4975817;28;20053;-83
2022/05/21 01:37:54;;;;;;;29.33;18.55;;;11.60;99.90;;;;;;4975204;28;20038;-83
2022/05/21 01:40:19;;;;;;;32.70;21.83;;;11.70;99.90;;;;;;4975742;28;20057;-83
2022/05/21 01:44:37;;;;;;;33.35;19.48;;;11.70;99.90;;;;;;4975978;28;20121;-83
2022/05/21 01:45:31;;;;;;;29.27;18.63;;;11.80;99.90;;;;;;4975571;28;20070;-84
2022/05/21 01:47:56;;;;;;;30.45;18.75;;;11.80;99.90;;;;;;4991096;28;20042;-83
2022/05/21 01:50:22;;;;;;;28.27;18.80;;;11.80;99.90;;;;;;4975891;28;20125;-84
2022/05/21 01:52:47;;;;;;;26.00;19.50;;;11.80;99.90;;;;;;4975170;28;20114;-84
2022/05/21 01:55:13;;;;;;;30.00;21.13;;;11.80;99.90;;;;;;4975463;28;20038;-83
2022/05/21 01:57:38;;;;;;;30.55;21.80;;;11.80;99.90;;;;;;4959098;28;20496;-84
2022/05/21 02:00:05;;;;;;;30.13;21.63;;;11.90;99.90;;;;;;4959376;28;20092;-84
2022/05/21 02:02:30;;;;;;;31.73;21.98;;;11.90;99.90;;;;;;4959186;28;20500;-84
2022/05/21 02:04:56;;;;;;;39.25;35.38;;;11.90;99.90;;;;;;4975037;28;20045;-83
2022/05/21 02:07:21;;;;;;;31.88;22.60;;;12.00;99.90;;;;;;4959186;28;20043;-84
2022/05/21 02:09:47;;;;;;;31.05;22.45;;;12.00;99.90;;;;;;4958656;28;20049;-84
2022/05/21 02:12:16;;;;;;;31.27;20.38;;;12.00;99.90;;;;;;4975106;28;20042;-83
2022/05/21 02:14:43;;;;;;;33.17;23.77;;;12.00;99.90;;;;;;4975125;28;20050;-84
2022/05/21 02:17:08;;;;;;;36.72;24.65;;;12.00;99.90;;;;;;4975056;28;20042;-84
2022/05/21 02:19:34;;;;;;;37.15;23.42;;;12.10;99.90;;;;;;4974899;28;20039;-84
2022/05/21 02:22:00;;;;;;;35.80;25.80;;;12.10;99.90;;;;;;4975183;28;20046;-84
2022/05/21 02:24:25;;;;;;;32.28;24.42;;;12.10;99.90;;;;;;4974880;28;20096;-83
2022/05/21 02:26:51;;;;;;;35.70;27.92;;;12.10;99.90;;;;;;4974964;28;20038;-84
2022/05/21 02:29:18;;;;;;;28.95;23.02;;;12.10;99.90;;;;;;4974589;28;20045;-84
2022/05/21 02:31:44;;;;;;;34.17;24.50;;;12.10;99.90;;;;;;4974928;28;20496;-84
2022/05/21 02:34:09;;;;;;;34.42;23.73;;;12.20;99.90;;;;;;4974861;28;20041;-84
2022/05/21 02:39:31;;;;;;;33.47;22.70;;;12.20;99.90;;;;;;4974351;28;20539;-84
2022/05/21 02:42:00;;;;;;;33.38;25.45;;;12.20;99.90;;;;;;4975275;28;20108;-84
2022/05/21 02:44:28;;;;;;;39.85;35.92;;;12.20;99.90;;;;;;4974766;28;20042;-84
2022/05/21 02:46:54;;;;;;;32.72;22.55;;;12.30;99.90;;;;;;4974909;28;20176;-84
2022/05/21 02:49:20;;;;;;;32.00;21.02;;;12.30;99.90;;;;;;4973798;28;20038;-84
2022/05/21 02:51:45;;;;;;;30.92;22.75;;;12.30;99.90;;;;;;4958478;28;20050;-84
2022/05/21 02:54:14;;;;;;;31.77;22.30;;;12.30;99.90;;;;;;4974938;28;20043;-84
2022/05/21 02:56:48;;;;;;;30.25;22.00;;;12.40;99.90;;;;;;4974819;28;20053;-84
2022/05/21 02:59:14;;;;;;;30.40;21.33;;;12.40;99.90;;;;;;4974709;28;20048;-84
2022/05/21 03:01:40;;;;;;;30.63;23.35;;;12.40;99.90;;;;;;4974708;28;20046;-84
2022/05/21 03:04:07;;;;;;;30.83;22.08;;;12.40;99.90;;;;;;4974502;28;20423;-83
2022/05/21 03:06:34;;;;;;;34.58;30.80;;;12.40;99.90;;;;;;4974835;28;20133;-84
2022/05/21 03:11:44;;;;;;;30.13;20.42;;;12.50;99.90;;;;;;4974811;28;20050;-84
2022/05/21 03:14:09;;;;;;;31.00;18.05;;;12.50;99.90;;;;;;4974472;28;20038;-84
2022/05/21 03:16:35;;;;;;;30.02;20.95;;;12.50;99.90;;;;;;4974517;28;20038;-84
2022/05/21 03:19:01;;;;;;;33.30;29.92;;;12.50;99.90;;;;;;4974059;28;20121;-84
2022/05/21 03:21:26;;;;;;;28.70;19.83;;;12.50;99.90;;;;;;4974572;28;20041;-84
2022/05/21 03:23:52;;;;;;;26.52;17.45;;;12.50;99.90;;;;;;4976704;28;20444;-84
2022/05/21 03:26:17;;;;;;;24.90;16.95;;;12.50;99.90;;;;;;4978346;28;20562;-84
2022/05/21 03:28:43;;;;;;;25.88;18.77;;;12.50;99.90;;;;;;4977764;28;20404;-84
2022/05/21 03:31:09;;;;;;;29.42;19.25;;;12.50;99.90;;;;;;4978085;28;20034;-84
2022/05/21 03:33:34;;;;;;;26.10;17.70;;;12.60;99.90;;;;;;4978069;28;20061;-84
2022/05/21 03:36:00;;;;;;;24.00;17.38;;;12.60;99.90;;;;;;4978245;28;20129;-84
2022/05/21 03:38:25;;;;;;;32.05;26.27;;;12.60;99.90;;;;;;4977868;28;20050;-84
2022/05/21 03:40:51;;;;;;;29.08;17.95;;;12.60;99.90;;;;;;4978055;28;20045;-84
2022/05/21 03:43:16;;;;;;;27.50;16.80;;;12.60;99.90;;;;;;4977899;28;20042;-84
2022/05/21 03:45:42;;;;;;;24.45;17.00;;;12.60;99.90;;;;;;4977894;28;20053;-84
2022/05/21 03:48:08;;;;;;;25.40;16.08;;;12.60;99.90;;;;;;4977712;28;20042;-84
2022/05/21 03:50:34;;;;;;;26.55;17.63;;;12.60;99.90;;;;;;4977963;28;20499;-84
2022/05/21 03:53:01;;;;;;;27.77;17.27;;;12.60;99.90;;;;;;4977699;28;20125;-84
2022/05/21 03:55:27;;;;;;;28.65;16.83;;;12.60;99.90;;;;;;4993719;28;20554;-84
2022/05/21 03:57:53;;;;;;;26.60;16.98;;;12.60;99.90;;;;;;4960812;28;20038;-84
2022/05/21 04:00:20;;;;;;;22.58;14.52;;;12.60;99.90;;;;;;4961798;28;20050;-84
2022/05/21 04:02:46;;;;;;;26.15;16.13;;;12.60;99.90;;;;;;4977696;28;20447;-84
2022/05/21 04:05:13;;;;;;;29.10;16.00;;;12.60;99.90;;;;;;4977455;28;20500;-84
2022/05/21 04:07:39;;;;;;;23.77;16.17;;;12.70;99.90;;;;;;4977454;28;20065;-84
2022/05/21 04:10:06;;;;;;;26.60;16.83;;;12.70;99.90;;;;;;4977408;28;20042;-84
2022/05/21 04:12:32;;;;;;;22.05;14.10;;;12.70;99.90;;;;;;4961232;28;20084;-83
2022/05/21 04:14:57;;;;;;;23.73;14.73;;;12.70;99.90;;;;;;4977620;28;20452;-84
2022/05/21 04:17:23;;;;;;;27.42;14.55;;;12.70;99.90;;;;;;4977332;28;20092;-84
2022/05/21 04:19:48;;;;;;;29.42;16.23;;;12.70;99.90;;;;;;4976842;28;20137;-84
2022/05/21 04:22:14;;;;;;;23.38;14.70;;;12.70;99.90;;;;;;4977265;28;20038;-84
2022/05/21 04:24:40;;;;;;;23.33;14.02;;;12.80;99.90;;;;;;4977472;28;20046;-84
2022/05/21 04:27:07;;;;;;;23.42;13.85;;;12.80;99.90;;;;;;4961223;28;20045;-84
2022/05/21 04:29:33;;;;;;;26.35;18.77;;;12.80;99.90;;;;;;4976844;28;20571;-84
2022/05/21 04:31:59;;;;;;;22.85;12.35;;;12.90;99.90;;;;;;4976858;28;20516;-84
2022/05/21 04:34:24;;;;;;;22.08;12.05;;;12.90;99.90;;;;;;4976773;28;20049;-84
2022/05/21 04:36:50;;;;;;;20.25;10.30;;;12.90;99.90;;;;;;4976751;28;20049;-84
2022/05/21 04:39:16;;;;;;;20.42;12.20;;;12.90;99.90;;;;;;4960489;28;20190;-84
2022/05/21 04:41:41;;;;;;;19.50;10.15;;;12.90;99.90;;;;;;4977007;28;20044;-84
2022/05/21 04:44:07;;;;;;;23.48;13.65;;;12.90;99.90;;;;;;4976656;28;20042;-84
2022/05/21 04:46:35;;;;;;;25.45;12.63;;;12.90;99.90;;;;;;4976943;28;20129;-84
2022/05/21 04:49:01;;;;;;;24.25;16.13;;;13.00;99.90;;;;;;4972085;28;20546;-82
2022/05/21 04:51:27;;;;;;;21.73;15.73;;;13.00;99.90;;;;;;4975686;28;20035;-83
2022/05/21 04:53:53;;;;;;;23.42;11.05;;;13.10;99.90;;;;;;4976654;28;20085;-83
2022/05/21 04:56:19;;;;;;;17.30;9.63;;;13.10;99.90;;;;;;4976562;28;20085;-82
2022/05/21 04:58:44;;;;;;;27.70;11.57;;;13.10;99.90;;;;;;4976172;28;20464;-82
2022/05/21 05:01:10;;;;;;;22.50;10.60;;;13.10;99.90;;;;;;4976891;28;20050;-83
2022/05/21 05:03:35;;;;;;;23.98;11.15;;;13.10;99.90;;;;;;4976715;28;20046;-82
2022/05/21 05:06:02;;;;;;;22.33;11.30;;;13.10;99.90;;;;;;4976410;28;20459;-82
2022/05/21 05:08:28;;;;;;;21.90;9.68;;;13.10;99.90;;;;;;4976296;28;20035;-83
2022/05/21 05:10:53;;;;;;;23.83;9.75;;;13.20;99.90;;;;;;4960721;28;20045;-83
2022/05/21 05:13:19;;;;;;;20.67;9.25;;;13.20;99.90;;;;;;4959911;28;20085;-83
2022/05/21 05:15:46;;;;;;;17.48;9.13;;;13.20;99.90;;;;;;4960094;28;20125;-83
2022/05/21 05:18:23;;;;;;;24.08;11.98;;;13.20;99.90;;;;;;4975800;28;20038;-83
2022/05/21 05:20:49;;;;;;;17.65;8.18;;;13.30;99.90;;;;;;4976280;28;20042;-83
2022/05/21 05:23:15;;;;;;;16.60;8.25;;;13.40;99.90;;;;;;4976124;28;20039;-83
2022/05/21 05:25:41;;;;;;;21.73;7.88;;;13.40;99.90;;;;;;4976211;28;20053;-83
2022/05/21 05:28:18;;;;;;;23.60;11.05;;;13.40;99.90;;;;;;4975891;28;20046;-83
2022/05/21 05:30:44;;;;;;;21.60;9.80;;;13.50;99.90;;;;;;4975404;28;20045;-83
2022/05/21 05:33:10;;;;;;;23.52;7.07;;;13.50;99.90;;;;;;4975904;28;20499;-83
2022/05/21 05:35:36;;;;;;;16.13;6.05;;;13.60;99.90;;;;;;4975634;28;20041;-83
2022/05/21 05:38:10;;;;;;;19.98;6.05;;;13.60;99.90;;;;;;4975581;28;20038;-83
2022/05/21 05:40:38;;;;;;;16.77;5.55;;;13.60;99.90;;;;;;4959840;28;20046;-83
2022/05/21 05:43:04;;;;;;;18.67;5.97;;;13.70;99.90;;;;;;4975670;28;20092;-84
2022/05/21 05:45:30;;;;;;;17.45;5.57;;;13.70;99.90;;;;;;4975159;28;20121;-84
2022/05/21 05:47:56;;;;;;;19.67;5.28;;;13.80;99.90;;;;;;4975225;28;20038;-83
2022/05/21 05:50:22;;;;;;;15.20;4.35;;;13.80;99.90;;;;;;4975375;28;20053;-84
2022/05/21 05:52:48;;;;;;;14.30;3.58;;;13.90;99.90;;;;;;4975362;28;20038;-84
2022/05/21 05:55:13;;;;;;;16.83;3.63;;;13.90;99.90;;;;;;4959316;28;20128;-83
2022/05/21 05:57:39;;;;;;;15.43;4.13;;;13.90;99.90;;;;;;4975396;28;20045;-83
2022/05/21 06:00:06;;;;;;;19.88;5.25;;;14.00;99.90;;;;;;4975624;28;20038;-84
2022/05/21 06:05:18;;;;;;;19.00;4.78;;;14.10;99.90;;;;;;4975385;28;20054;-83
2022/05/21 06:07:50;;;;;;;14.88;3.80;;;14.20;99.90;;;;;;4975179;28;20049;-83
2022/05/21 06:10:23;;;;;;;16.70;4.90;;;14.30;99.90;;;;;;4975309;28;20045;-83
2022/05/21 06:12:49;;;;;;;13.93;3.30;;;14.40;99.90;;;;;;4959337;28;20049;-82
2022/05/21 06:15:15;;;;;;;14.30;3.05;;;14.40;99.90;;;;;;4975546;28;20038;-83
2022/05/21 06:17:41;;;;;;;15.60;4.15;;;14.40;99.90;;;;;;4958657;28;20125;-84
2022/05/21 06:20:10;;;;;;;13.07;2.95;;;14.50;99.90;;;;;;4974961;28;20092;-83
2022/05/21 06:22:36;;;;;;;15.23;4.10;;;14.50;99.90;;;;;;4959139;28;20077;-84
2022/05/21 06:25:02;;;;;;;14.85;3.42;;;14.50;99.90;;;;;;4958906;28;20074;-84
2022/05/21 06:27:27;;;;;;;14.32;3.20;;;14.50;99.90;;;;;;4975006;28;20038;-83
2022/05/21 06:29:53;;;;;;;15.50;3.42;;;14.40;99.90;;;;;;4974600;28;20580;-84
2022/05/21 06:32:19;;;;;;;16.23;5.15;;;14.50;99.90;;;;;;4958734;28;20049;-84
2022/05/21 06:34:45;;;;;;;15.48;4.07;;;14.60;99.90;;;;;;4958813;28;20045;-84
2022/05/21 06:37:12;;;;;;;14.25;3.33;;;14.60;99.90;;;;;;4959075;28;20050;-84
2022/05/21 06:39:40;;;;;;;14.82;4.32;;;14.70;99.90;;;;;;4974512;28;20089;-84
2022/05/21 06:42:06;;;;;;;14.55;2.95;;;14.80;99.90;;;;;;4975010;28;20058;-84
2022/05/21 06:44:32;;;;;;;14.20;3.88;;;14.80;99.90;;;;;;4959012;28;20087;-84
2022/05/21 06:46:58;;;;;;;15.43;3.78;;;14.90;99.90;;;;;;4974184;28;20128;-84
2022/05/21 06:49:26;;;;;;;14.02;4.28;;;15.00;99.90;;;;;;4973963;28;20035;-84
2022/05/21 06:51:57;;;;;;;12.52;3.67;;;15.10;99.90;;;;;;4974862;28;20039;-84
2022/05/21 06:54:23;;;;;;;15.15;3.15;;;15.10;99.90;;;;;;4974968;28;20060;-84
2022/05/21 06:56:49;;;;;;;10.55;3.08;;;15.00;99.90;;;;;;4959113;28;20113;-84
2022/05/21 06:59:16;;;;;;;15.98;3.83;;;14.90;99.90;;;;;;4962156;28;20046;-84
2022/05/21 07:01:42;;;;;;;12.95;2.97;;;15.00;99.90;;;;;;4985761;28;20402;-84
2022/05/21 07:04:08;;;;;;;15.38;3.42;;;15.00;99.90;;;;;;4978582;28;20563;-84
2022/05/21 07:09:20;;;;;;;15.90;3.65;;;14.90;99.90;;;;;;4977648;28;20050;-84
2022/05/21 07:11:47;;;;;;;13.13;3.65;;;14.80;99.90;;;;;;4975803;28;20042;-84
2022/05/21 07:14:12;;;;;;;12.88;3.38;;;14.80;99.90;;;;;;4959401;28;20181;-84
2022/05/21 07:16:39;;;;;;;12.90;2.88;;;14.80;99.90;;;;;;4975690;28;20042;-84
2022/05/21 07:19:04;;;;;;;14.88;3.22;;;14.80;99.90;;;;;;4974994;28;20038;-84
2022/05/21 07:21:30;;;;;;;13.43;3.78;;;14.90;99.90;;;;;;4975580;28;20559;-84
2022/05/21 07:23:56;;;;;;;11.52;2.80;;;15.10;99.90;;;;;;4975676;28;20042;-84
2022/05/21 07:26:22;;;;;;;13.10;3.60;;;15.20;99.90;;;;;;4962242;28;20129;-84
2022/05/21 07:28:47;;;;;;;14.95;3.97;;;15.30;99.90;;;;;;4977718;28;20474;-84
2022/05/21 07:31:13;;;;;;;13.25;3.28;;;15.40;99.90;;;;;;4978079;28;20563;-84
2022/05/21 07:33:39;;;;;;;13.50;3.08;;;15.50;99.90;;;;;;4962368;28;20043;-84
2022/05/21 07:36:05;;;;;;;12.88;3.25;;;15.50;99.90;;;;;;4977899;28;20039;-84
2022/05/21 07:38:30;;;;;;;11.93;2.63;;;15.60;99.90;;;;;;4961735;28;20085;-84
2022/05/21 07:40:56;;;;;;;15.30;3.65;;;15.60;99.90;;;;;;4978020;28;20069;-83
2022/05/21 07:43:27;;;;;;;11.77;3.05;;;15.50;99.90;;;;;;4978084;28;20045;-83
2022/05/21 07:45:54;;;;;;;14.40;2.58;;;15.50;99.90;;;;;;4978150;28;20380;-83
2022/05/21 07:48:20;;;;;;;10.73;2.90;;;15.50;99.90;;;;;;4961150;28;20078;-83
2022/05/21 07:50:49;;;;;;;9.57;3.13;;;15.60;99.90;;;;;;4977469;28;20093;-83
2022/05/21 07:53:18;;;;;;;13.05;2.90;;;15.70;99.90;;;;;;4961685;28;20439;-83
2022/05/21 07:55:45;;;;;;;11.70;2.88;;;15.80;99.90;;;;;;4961469;28;20495;-83
2022/05/21 07:58:11;;;;;;;13.35;2.88;;;15.90;99.90;;;;;;4977707;28;20042;-83
2022/05/21 08:00:38;;;;;;;10.13;2.63;;;15.90;99.90;;;;;;4977511;28;20049;-83
2022/05/21 08:03:04;;;;;;;10.23;2.95;;;15.90;99.90;;;;;;4977422;28;20041;-83
2022/05/21 08:05:30;;;;;;;15.73;3.17;;;15.90;99.90;;;;;;4977760;28;20403;-83
2022/05/21 08:07:56;;;;;;;11.75;2.70;;;15.80;99.90;;;;;;4961302;28;20495;-83
2022/05/21 08:10:22;;;;;;;13.63;3.33;;;15.90;99.90;;;;;;4960554;28;20121;-83
2022/05/21 08:12:49;;;;;;;12.10;2.88;;;15.90;99.90;;;;;;4977029;28;20050;-83
2022/05/21 08:15:16;;;;;;;11.05;2.53;;;15.90;99.90;;;;;;4961114;28;20488;-82
2022/05/21 08:17:42;;;;;;;13.27;3.03;;;16.00;99.90;;;;;;4960096;28;20031;-82
2022/05/21 08:20:11;;;;;;;10.13;2.10;;;16.00;99.90;;;;;;4984736;28;20116;-84
2022/05/21 08:28:05;;;;;;;11.88;2.60;;;15.80;99.90;;;;;;4976867;28;20042;-83
2022/05/21 08:30:30;;;;;;;14.40;3.35;;;15.70;99.90;;;;;;4975899;28;20468;-83
2022/05/21 08:33:06;;;;;;;14.38;4.05;;;15.70;99.90;;;;;;4976620;28;20042;-83
2022/05/21 08:35:33;;;;;;;13.90;3.08;;;15.80;99.90;;;;;;4985080;28;20404;-84
2022/05/21 08:37:59;;;;;;;12.73;2.90;;;15.90;99.90;;;;;;4991748;28;20038;-83
2022/05/21 08:40:54;;;;;;;12.77;3.08;;;16.00;99.90;;;;;;5008920;28;20050;-84
2022/05/21 08:43:24;;;;;;;11.77;2.88;;;16.20;99.90;;;;;;4942863;28;20092;-84
2022/05/21 08:46:11;;;;;;;11.52;2.90;;;16.30;99.90;;;;;;4993247;28;20737;-84
2022/05/21 08:48:41;;;;;;;12.93;3.22;;;16.40;99.90;;;;;;4992183;28;20496;-84
2022/05/21 08:51:17;;;;;;;9.77;2.17;;;16.30;99.90;;;;;;4976436;28;20044;-84
2022/05/21 08:53:49;;;;;;;10.77;2.58;;;16.10;99.90;;;;;;5009360;28;20074;-84
2022/05/21 08:56:16;;;;;;;10.93;2.33;;;16.00;99.90;;;;;;5009084;28;20126;-84
2022/05/21 08:58:46;;;;;;;10.55;2.70;;;16.10;99.90;;;;;;4992318;28;20050;-84
2022/05/21 09:01:15;;;;;;;13.15;2.88;;;16.10;99.90;;;;;;4976800;28;20041;-83
2022/05/21 09:03:42;;;;;;;11.82;3.03;;;16.30;99.90;;;;;;5008918;28;20567;-84
2022/05/21 09:06:16;;;;;;;11.18;2.58;;;16.50;99.90;;;;;;4976459;28;20046;-84
2022/05/21 09:08:45;;;;;;;12.85;2.55;;;16.70;99.90;;;;;;4975891;28;20054;-84
2022/05/21 09:11:22;;;;;;;9.13;2.45;;;16.60;99.90;;;;;;4976653;28;20508;-84
2022/05/21 09:14:03;;;;;;;10.85;2.45;;;16.50;99.90;;;;;;5009081;28;20431;-84
2022/05/21 09:16:54;;;;;;;11.82;2.47;;;16.40;99.90;;;;;;4976373;28;20074;-84
2022/05/21 09:19:25;;;;;;;11.10;2.38;;;16.20;99.90;;;;;;4991679;28;20038;-83
2022/05/21 09:22:03;;;;;;;10.07;2.72;;;16.30;99.90;;;;;;4974985;28;20541;-84
2022/05/21 09:24:53;;;;;;;9.80;2.58;;;16.30;99.90;;;;;;4976108;28;20048;-84
2022/05/21 09:27:32;;;;;;;9.93;1.92;;;16.50;99.90;;;;;;4975529;28;20451;-84
2022/05/21 09:30:24;;;;;;;10.80;2.30;;;16.50;99.90;;;;;;4975631;28;20137;-84
2022/05/21 09:32:56;;;;;;;13.20;2.72;;;16.60;99.90;;;;;;5008872;28;20042;-84
2022/05/21 09:35:34;;;;;;;11.10;2.63;;;16.60;99.90;;;;;;4976136;28;20034;-84
2022/05/21 09:38:26;;;;;;;11.55;2.08;;;16.50;99.90;;;;;;4991654;28;20495;-84
2022/05/21 09:41:16;;;;;;;8.63;2.17;;;16.60;99.90;;;;;;4959917;28;20049;-84
2022/05/21 09:46:42;;;;;;;11.60;2.63;;;17.00;99.90;;;;;;5008694;28;20514;-84
2022/05/21 09:49:28;;;;;;;11.57;2.47;;;17.20;99.90;;;;;;4975243;28;20194;-84
2022/05/21 09:52:04;;;;;;;9.18;1.95;;;17.30;99.90;;;;;;4991916;28;20092;-84
2022/05/21 09:54:34;;;;;;;11.00;2.60;;;17.20;99.90;;;;;;4975391;28;20042;-84
2022/05/21 09:57:00;;;;;;;9.93;2.40;;;17.20;99.90;;;;;;4975660;28;20034;-84
2022/05/21 09:59:29;;;;;;;11.10;2.50;;;17.10;99.90;;;;;;4975119;28;20045;-84
2022/05/21 10:02:01;;;;;;;8.88;2.10;;;16.90;99.90;;;;;;4994458;28;20046;-84
2022/05/21 10:04:35;;;;;;;8.07;1.83;;;16.90;99.90;;;;;;4972670;28;20253;-84
2022/05/21 10:13:07;;;;;;;9.70;1.85;;;17.20;99.90;;;;;;4975127;28;20057;-84
2022/05/21 10:15:42;;;;;;;8.05;2.00;;;17.10;99.90;;;;;;4975357;28;20042;-84
2022/05/21 10:18:37;;;;;;;8.60;1.98;;;17.00;99.90;;;;;;4958906;28;20087;-84
2022/05/21 10:21:29;;;;;;;10.38;2.40;;;17.10;99.90;;;;;;4959188;28;20034;-84
2022/05/21 10:24:09;;;;;;;11.80;2.30;;;17.10;99.90;;;;;;4958479;28;20085;-84
2022/05/21 10:26:47;;;;;;;9.35;1.90;;;17.30;99.90;;;;;;4973069;28;20447;-84
2022/05/21 10:29:29;;;;;;;10.07;2.25;;;17.20;99.90;;;;;;4972265;28;20117;-84
2022/05/21 10:32:08;;;;;;;7.93;2.15;;;17.10;99.90;;;;;;4972586;28;20037;-84
2022/05/21 10:35:01;;;;;;;8.75;1.92;;;17.10;99.90;;;;;;4973206;28;20395;-84
2022/05/21 10:37:36;;;;;;;;;;;17.10;99.90;;;;;;4972775;28;20042;-84
2022/05/21 10:40:34;;;;;;;10.73;2.13;;;17.20;99.90;;;;;;4958558;28;19921;-84
2022/05/21 10:43:25;;;;;;;10.48;2.25;;;17.50;99.90;;;;;;4975222;28;20400;-84
2022/05/21 10:45:58;;;;;;;10.57;2.20;;;17.60;99.90;;;;;;4945418;28;20400;-84
2022/05/21 10:48:44;;;;;;;9.95;2.15;;;17.80;99.90;;;;;;4974754;28;20415;-84
2022/05/21 10:51:37;;;;;;;7.30;1.60;;;18.00;99.90;;;;;;4975066;28;20146;-84
2022/05/21 10:54:40;;;;;;;9.13;1.90;;;18.00;99.90;;;;;;4974887;28;20045;-84
2022/05/21 10:57:12;;;;;;;10.93;2.38;;;18.00;99.90;;;;;;4974979;28;20188;-84
2022/05/21 10:59:56;;;;;;;9.48;2.25;;;18.00;99.90;;;;;;4958833;28;20038;-84
2022/05/21 11:02:39;;;;;;;10.57;2.58;;;18.20;99.90;;;;;;4974735;28;20450;-84
2022/05/21 11:05:45;;;;;;;10.02;2.30;;;18.30;99.90;;;;;;4974230;28;20042;-84
2022/05/21 11:08:35;;;;;;;8.82;1.85;;;18.40;99.90;;;;;;4974287;28;20444;-84
2022/05/21 11:11:27;;;;;;;9.95;2.45;;;18.30;99.90;;;;;;4974996;28;20385;-84
2022/05/21 11:14:07;;;;;;;10.33;2.40;;;18.10;99.90;;;;;;4980474;28;20046;-84
2022/05/21 11:16:49;;;;;;;8.63;1.83;;;17.90;99.90;;;;;;4974486;28;20276;-84
2022/05/21 11:19:29;;;;;;;7.32;1.48;;;17.90;99.90;;;;;;4974438;28;20046;-84
2022/05/21 11:22:27;;;;;;;8.45;1.67;;;17.90;99.90;;;;;;4958448;28;20522;-85
2022/05/21 11:25:15;;;;;;;9.48;1.88;;;18.00;99.90;;;;;;4973955;28;20046;-84
2022/05/21 11:28:20;;;;;;;9.93;2.10;;;18.10;99.90;;;;;;4973007;28;20454;-84
2022/05/21 11:30:45;;;;;;;8.57;2.10;;;18.30;99.90;;;;;;4964166;28;20050;-84
2022/05/21 11:38:52;;;;;;;8.23;2.17;;;18.60;98.70;;;;;;5006688;28;20082;-84
2022/05/21 11:41:42;;;;;;;6.88;1.73;;;18.50;99.40;;;;;;4974639;28;20038;-85
2022/05/21 11:47:06;;;;;;;9.63;1.90;;;18.40;98.40;;;;;;5010458;28;20504;-84
2022/05/21 11:49:45;;;;;;;9.63;1.90;;;18.40;98.20;;;;;;4977712;28;20137;-85
2022/05/21 11:52:26;;;;;;;10.05;1.98;;;18.40;99.90;;;;;;4994095;28;20038;-85
2022/05/21 11:54:55;;;;;;;7.45;1.90;;;18.30;99.70;;;;;;4994044;28;20111;-85
2022/05/21 11:57:35;;;;;;;7.28;1.75;;;18.30;99.90;;;;;;4977480;28;20048;-84
2022/05/21 12:00:08;;;;;;;9.48;1.85;;;18.30;99.70;;;;;;5010497;28;20566;-84
2022/05/21 12:02:41;;;;;;;;;;;18.30;98.50;;;;;;4962422;28;20050;-84
2022/05/21 12:05:09;;;;;;;8.48;1.67;;;18.10;97.30;;;;;;5010353;28;19972;-84
2022/05/21 12:07:41;;;;;;;10.88;1.90;;;18.00;97.70;;;;;;5010161;28;20417;-84
2022/05/21 12:10:29;;;;;;;9.70;1.77;;;18.10;98.20;;;;;;4977398;28;20054;-84
2022/05/21 12:13:06;;;;;;;8.65;1.92;;;18.20;97.80;;;;;;5008792;28;20115;-83
2022/05/21 12:15:50;;;;;;;8.90;1.70;;;18.30;98.90;;;;;;4972510;28;20491;-82
2022/05/21 12:18:25;;;;;;;10.00;2.03;;;18.50;99.90;;;;;;4961278;28;20404;-83
2022/05/21 12:20:52;;;;;;;9.93;2.08;;;18.70;99.70;;;;;;4993631;28;20049;-83
2022/05/21 12:23:41;;;;;;;8.77;2.05;;;18.80;97.60;;;;;;4993793;28;20038;-83
2022/05/21 12:26:19;;;;;;;9.02;2.03;;;18.80;97.60;;;;;;4976278;28;20050;-86
2022/05/21 12:28:47;;;;;;;8.88;1.75;;;19.00;97.90;;;;;;4991914;28;20513;-83
2022/05/21 12:31:44;;;;;;;8.40;1.95;;;19.10;97.90;;;;;;5009338;28;20100;-83
2022/05/21 12:34:12;;;;;;;7.78;1.60;;;19.00;96.30;;;;;;4967819;28;20057;-83
2022/05/21 12:36:53;;;;;;;6.57;1.67;;;19.00;92.30;;;;;;4977290;28;20045;-83
2022/05/21 12:39:26;;;;;;;9.35;2.13;;;19.00;91.80;;;;;;4993032;28;20100;-83
2022/05/21 12:41:54;;;;;;;9.35;1.77;;;19.10;95.30;;;;;;5009725;28;20050;-83
2022/05/21 12:44:45;;;;;;;8.45;1.73;;;19.10;95.10;;;;;;4977118;28;20499;-84
2022/05/21 12:47:13;;;;;;;9.82;2.17;;;19.30;95.00;;;;;;4976942;28;20046;-84
2022/05/21 12:49:47;;;;;;;8.93;1.92;;;19.40;97.70;;;;;;4976291;28;20400;-84
2022/05/21 12:52:24;;;;;;;8.88;1.95;;;19.40;96.10;;;;;;4993098;28;20042;-85
2022/05/21 12:55:10;;;;;;;7.28;1.70;;;19.50;96.10;;;;;;4976565;28;20060;-85
2022/05/21 12:57:36;;;;;;;10.18;1.60;;;19.40;95.10;;;;;;4976206;28;20049;-84
2022/05/21 13:00:05;;;;;;;8.40;1.77;;;19.50;96.80;;;;;;5001164;28;20419;-84
2022/05/21 13:02:44;;;;;;;9.00;1.83;;;19.60;96.30;;;;;;4976282;28;20411;-84
2022/05/21 13:05:17;;;;;;;7.50;1.70;;;19.70;94.10;;;;;;4975814;28;20038;-85
2022/05/21 13:07:44;;;;;;;11.77;2.05;;;19.70;93.00;;;;;;4957918;28;20031;-84
2022/05/21 13:10:18;;;;;;;9.27;2.03;;;19.70;94.30;;;;;;4959977;28;20046;-84
2022/05/21 13:12:46;;;;;;;8.75;1.90;;;19.80;93.40;;;;;;4992575;28;20062;-84
2022/05/21 13:15:18;;;;;;;9.00;2.13;;;19.90;94.60;;;;;;4976376;28;20070;-85
2022/05/21 13:18:22;;;;;;;10.60;1.97;;;19.90;90.70;;;;;;4976278;28;20044;-85
2022/05/21 13:21:11;;;;;;;8.15;1.80;;;20.00;93.80;;;;;;4960083;28;20038;-85
2022/05/21 13:24:00;;;;;;;7.38;1.42;;;20.00;92.60;;;;;;4959947;28;20038;-84
2022/05/21 13:26:32;;;;;;;8.18;1.90;;;19.90;88.70;;;;;;4976255;28;20042;-84
2022/05/21 13:29:15;;;;;;;8.80;2.00;;;19.80;87.00;;;;;;4975647;28;20046;-84
2022/05/21 13:31:41;;;;;;;10.13;1.90;;;19.70;78.60;;;;;;4976275;28;20381;-84